Time;durP1;ratioP1;P1;durP2;ratioP2;P2;SDS_P1;SDS_P2;PMS_P1;PMS_P2;Temp;Humidity;BMP_temperature;BMP_pressure;BME280_temperature;BME280_humidity;BME280_pressure;Samples;Min_cycle;Max_cycle;Signal;HPM_P1;HPM_P2
2021/03/02 00:02:22;;;;;;;36.87;15.30;;;5.70;93.90;;;;;;5038631;28;20430;-85
2021/03/02 00:04:47;;;;;;;26.47;13.63;;;5.70;93.90;;;;;;5053925;28;20021;-85
2021/03/02 00:07:14;;;;;;;28.97;13.70;;;5.70;93.80;;;;;;5053791;28;20022;-84
2021/03/02 00:09:41;;;;;;;25.83;14.60;;;5.60;93.80;;;;;;5038484;28;20029;-84
2021/03/02 00:12:08;;;;;;;29.67;14.07;;;5.60;93.80;;;;;;5039077;28;20074;-84
2021/03/02 00:14:37;;;;;;;28.50;14.40;;;5.60;93.90;;;;;;5038029;28;20022;-85
2021/03/02 00:17:13;;;;;;;30.10;14.00;;;5.60;93.90;;;;;;5053099;28;20053;-84
2021/03/02 00:19:49;;;;;;;24.43;13.70;;;5.60;94.00;;;;;;5052599;28;20443;-85
2021/03/02 00:22:56;;;;;;;26.40;13.80;;;5.60;93.90;;;;;;5038001;28;20116;-86
2021/03/02 00:25:25;;;;;;;26.43;13.70;;;5.60;94.00;;;;;;5053146;28;20022;-85
2021/03/02 00:27:54;;;;;;;25.35;13.23;;;5.60;94.20;;;;;;5053094;28;20488;-85
2021/03/02 00:30:20;;;;;;;30.42;14.40;;;5.60;94.40;;;;;;5037304;28;20113;-85
2021/03/02 00:32:47;;;;;;;28.07;14.20;;;5.50;94.10;;;;;;5052746;28;20049;-84
2021/03/02 00:35:14;;;;;;;24.93;13.97;;;5.50;94.30;;;;;;5037877;28;20052;-85
2021/03/02 00:37:39;;;;;;;24.27;13.20;;;5.50;94.20;;;;;;5053091;28;20025;-85
2021/03/02 00:40:06;;;;;;;24.33;13.20;;;5.50;94.10;;;;;;5037378;28;20040;-85
2021/03/02 00:42:31;;;;;;;24.37;13.23;;;5.50;94.20;;;;;;5037026;28;20014;-85
2021/03/02 00:44:57;;;;;;;24.43;13.73;;;5.50;94.20;;;;;;5036794;28;20352;-85
2021/03/02 00:47:22;;;;;;;25.03;13.57;;;5.50;94.30;;;;;;5036444;28;20021;-85
2021/03/02 00:49:50;;;;;;;26.00;14.30;;;5.50;94.30;;;;;;5035968;28;20021;-85
2021/03/02 00:52:16;;;;;;;27.30;13.93;;;5.40;94.40;;;;;;5051577;28;20498;-85
2021/03/02 00:54:42;;;;;;;26.37;14.17;;;5.40;94.40;;;;;;5035966;28;20022;-85
2021/03/02 00:57:08;;;;;;;24.97;13.90;;;5.30;94.40;;;;;;5035463;28;20096;-85
2021/03/02 00:59:33;;;;;;;29.80;14.07;;;5.30;94.50;;;;;;5033461;28;20053;-84
2021/03/02 01:01:59;;;;;;;25.43;13.63;;;5.40;94.50;;;;;;5048903;28;20084;-86
2021/03/02 01:04:25;;;;;;;25.03;13.43;;;5.40;94.50;;;;;;5048702;28;20036;-84
2021/03/02 01:06:51;;;;;;;26.50;13.83;;;5.40;94.40;;;;;;5048766;28;20406;-85
2021/03/02 01:09:16;;;;;;;25.00;13.33;;;5.40;94.30;;;;;;5033066;28;20060;-84
2021/03/02 01:11:42;;;;;;;26.90;13.63;;;5.40;94.30;;;;;;5048430;28;20116;-85
2021/03/02 01:14:08;;;;;;;27.37;14.23;;;5.40;94.10;;;;;;5033637;28;20041;-84
2021/03/02 01:16:34;;;;;;;27.57;13.50;;;5.50;94.10;;;;;;5035485;28;20081;-86
2021/03/02 01:18:59;;;;;;;28.73;13.70;;;5.50;94.10;;;;;;5050325;28;20107;-85
2021/03/02 01:21:25;;;;;;;30.03;14.60;;;5.50;94.00;;;;;;5050681;28;20034;-85
2021/03/02 01:23:50;;;;;;;25.33;13.37;;;5.50;94.30;;;;;;5035214;28;20029;-85
2021/03/02 01:26:16;;;;;;;26.93;14.23;;;5.50;93.90;;;;;;5034812;28;20036;-85
2021/03/02 01:28:42;;;;;;;25.10;13.07;;;5.40;93.90;;;;;;5050213;28;20041;-86
2021/03/02 01:31:07;;;;;;;25.87;13.27;;;5.40;93.90;;;;;;5034903;28;20033;-85
2021/03/02 01:33:33;;;;;;;27.53;13.43;;;5.40;94.00;;;;;;5050311;28;20500;-85
2021/03/02 01:35:59;;;;;;;24.40;13.27;;;5.40;94.10;;;;;;5034976;28;20029;-85
2021/03/02 01:38:24;;;;;;;24.93;13.00;;;5.40;93.90;;;;;;5050012;28;20027;-86
2021/03/02 01:40:50;;;;;;;26.40;14.27;;;5.40;93.90;;;;;;5034790;28;20029;-84
2021/03/02 01:43:16;;;;;;;26.20;12.90;;;5.40;93.90;;;;;;5049361;28;20025;-84
2021/03/02 01:45:41;;;;;;;25.87;13.87;;;5.50;93.80;;;;;;5034539;28;20040;-85
2021/03/02 01:48:08;;;;;;;23.57;13.97;;;5.50;93.90;;;;;;5034628;28;20505;-85
2021/03/02 01:50:33;;;;;;;26.47;13.27;;;5.50;93.70;;;;;;5049746;28;20025;-84
2021/03/02 01:52:59;;;;;;;24.40;13.77;;;5.50;93.90;;;;;;5034441;28;20033;-84
2021/03/02 01:55:25;;;;;;;25.17;13.17;;;5.50;93.70;;;;;;5034709;28;20108;-85
2021/03/02 01:57:51;;;;;;;24.33;13.47;;;5.50;93.70;;;;;;5049717;28;20029;-84
2021/03/02 02:00:35;;;;;;;25.33;14.00;;;5.50;93.70;;;;;;5049774;28;20140;-84
2021/03/02 02:03:23;;;;;;;25.70;13.40;;;5.50;93.70;;;;;;5049662;28;20059;-84
2021/03/02 02:05:56;;;;;;;32.47;14.00;;;5.50;93.80;;;;;;5034911;28;20021;-84
2021/03/02 02:08:34;;;;;;;24.13;13.40;;;5.40;93.90;;;;;;5035014;28;20052;-85
2021/03/02 02:11:12;;;;;;;21.93;13.13;;;5.40;93.80;;;;;;5034314;28;20056;-85
2021/03/02 02:13:44;;;;;;;24.23;13.05;;;5.40;93.60;;;;;;5034897;28;20033;-85
2021/03/02 02:16:13;;;;;;;25.23;13.27;;;5.40;93.70;;;;;;5049944;28;20030;-85
2021/03/02 02:18:42;;;;;;;25.83;13.38;;;5.40;93.70;;;;;;5034460;28;20112;-84
2021/03/02 02:21:29;;;;;;;26.02;13.93;;;5.30;93.90;;;;;;5049181;28;20076;-85
2021/03/02 02:24:17;;;;;;;24.03;12.93;;;5.30;93.90;;;;;;5035258;28;20018;-85
2021/03/02 02:26:51;;;;;;;25.70;12.83;;;5.20;93.80;;;;;;5049944;28;20021;-86
2021/03/02 02:29:20;;;;;;;28.23;13.50;;;5.20;93.70;;;;;;5034526;28;20266;-84
2021/03/02 02:31:47;;;;;;;23.38;13.45;;;5.20;93.80;;;;;;5049788;28;20025;-85
2021/03/02 02:34:15;;;;;;;24.33;13.70;;;5.20;93.70;;;;;;5034562;28;20117;-84
2021/03/02 02:36:44;;;;;;;22.90;12.70;;;5.20;94.00;;;;;;5034867;28;20478;-85
2021/03/02 02:39:11;;;;;;;24.05;13.20;;;5.10;93.80;;;;;;5034451;28;20380;-84
2021/03/02 02:41:38;;;;;;;24.80;13.17;;;5.10;93.70;;;;;;5034966;28;20025;-85
2021/03/02 02:44:04;;;;;;;24.20;12.07;;;5.10;93.30;;;;;;5034673;28;20068;-85
2021/03/02 02:46:31;;;;;;;25.07;13.17;;;5.20;93.40;;;;;;5034502;28;20022;-84
2021/03/02 02:48:58;;;;;;;26.77;13.27;;;5.20;93.20;;;;;;5050205;28;20076;-85
2021/03/02 02:51:25;;;;;;;24.40;12.77;;;5.10;93.50;;;;;;5050089;28;20033;-84
2021/03/02 02:53:50;;;;;;;24.00;12.73;;;5.10;93.30;;;;;;5034764;28;20033;-85
2021/03/02 02:56:19;;;;;;;24.40;13.00;;;5.00;93.50;;;;;;5034418;28;20030;-85
2021/03/02 02:58:58;;;;;;;25.40;12.70;;;5.00;93.70;;;;;;5035293;28;20029;-85
2021/03/02 03:01:24;;;;;;;;;;;4.90;93.70;;;;;;5035373;28;20192;-84
2021/03/02 03:03:53;;;;;;;23.27;12.53;;;4.90;93.70;;;;;;5033394;28;19928;-85
2021/03/02 03:06:20;;;;;;;25.93;12.83;;;4.90;93.70;;;;;;5037084;28;20029;-85
2021/03/02 03:08:50;;;;;;;22.60;12.83;;;4.90;93.80;;;;;;5038542;28;20544;-85
2021/03/02 03:11:24;;;;;;;22.43;12.77;;;4.80;93.80;;;;;;5053552;28;20112;-85
2021/03/02 03:13:52;;;;;;;24.70;12.80;;;4.70;94.00;;;;;;5038255;28;20036;-84
2021/03/02 03:16:20;;;;;;;24.13;12.57;;;4.60;94.00;;;;;;5038077;28;20021;-85
2021/03/02 03:18:51;;;;;;;25.70;13.50;;;4.60;94.10;;;;;;5053314;28;20033;-85
2021/03/02 03:21:17;;;;;;;24.57;11.90;;;4.60;94.10;;;;;;5038016;28;20029;-85
2021/03/02 03:23:43;;;;;;;22.27;12.67;;;4.60;94.00;;;;;;5038616;28;20104;-85
2021/03/02 03:26:12;;;;;;;24.63;13.13;;;4.70;93.90;;;;;;5053748;28;20025;-86
2021/03/02 03:28:38;;;;;;;23.20;12.48;;;4.60;93.80;;;;;;5038739;28;20021;-85
2021/03/02 03:31:05;;;;;;;23.17;12.40;;;4.50;93.80;;;;;;5037910;28;20482;-85
2021/03/02 03:33:32;;;;;;;22.37;11.73;;;4.60;94.00;;;;;;5053188;28;20545;-85
2021/03/02 03:35:58;;;;;;;23.77;12.23;;;4.70;93.70;;;;;;5037953;28;20418;-85
2021/03/02 03:38:24;;;;;;;23.60;12.10;;;4.70;93.70;;;;;;5053226;28;20437;-83
2021/03/02 03:40:51;;;;;;;22.37;12.60;;;4.60;93.70;;;;;;5052860;28;20032;-85
2021/03/02 03:43:16;;;;;;;21.13;12.13;;;4.70;93.70;;;;;;5037890;28;20105;-85
2021/03/02 03:45:42;;;;;;;18.83;11.90;;;4.70;93.60;;;;;;5037535;28;20089;-85
2021/03/02 03:48:08;;;;;;;21.97;11.83;;;4.60;93.50;;;;;;5036960;28;20047;-85
2021/03/02 03:50:34;;;;;;;22.80;11.90;;;4.50;93.60;;;;;;5053433;28;20108;-86
2021/03/02 03:53:02;;;;;;;25.13;13.00;;;4.50;93.70;;;;;;5053092;28;20120;-85
2021/03/02 03:55:33;;;;;;;21.23;12.20;;;4.50;93.90;;;;;;5037909;28;20029;-86
2021/03/02 03:58:00;;;;;;;24.23;12.80;;;4.50;93.50;;;;;;5053392;28;20041;-84
2021/03/02 04:00:26;;;;;;;23.13;12.37;;;4.40;93.60;;;;;;5037192;28;20057;-86
2021/03/02 04:02:52;;;;;;;22.07;12.00;;;4.40;93.50;;;;;;5053113;28;20048;-85
2021/03/02 04:05:19;;;;;;;25.40;12.00;;;4.40;93.50;;;;;;5038084;28;20053;-84
2021/03/02 04:07:46;;;;;;;24.63;11.80;;;4.30;93.60;;;;;;5037852;28;20048;-86
2021/03/02 04:10:14;;;;;;;21.43;12.67;;;4.30;93.40;;;;;;5037692;28;20021;-84
2021/03/02 04:12:41;;;;;;;25.43;12.07;;;4.30;93.60;;;;;;5037409;28;20108;-85
2021/03/02 04:15:17;;;;;;;22.50;11.77;;;4.30;93.70;;;;;;5037520;28;20124;-85
2021/03/02 04:17:50;;;;;;;22.37;11.83;;;4.30;93.40;;;;;;5052426;28;20029;-85
2021/03/02 04:20:16;;;;;;;23.37;11.87;;;4.20;93.60;;;;;;5052704;28;20029;-85
2021/03/02 04:22:42;;;;;;;23.33;12.17;;;4.30;93.50;;;;;;5037634;28;20026;-85
2021/03/02 04:25:08;;;;;;;22.27;11.80;;;4.30;93.50;;;;;;5037573;28;20505;-85
2021/03/02 04:27:34;;;;;;;20.77;12.17;;;4.20;93.50;;;;;;5052484;28;20029;-85
2021/03/02 04:30:00;;;;;;;22.90;11.80;;;4.20;93.60;;;;;;5037810;28;20490;-85
2021/03/02 04:32:25;;;;;;;24.27;12.17;;;4.10;93.50;;;;;;5053238;28;20021;-86
2021/03/02 04:34:51;;;;;;;20.70;11.67;;;4.20;93.40;;;;;;5037509;28;20039;-86
2021/03/02 04:37:17;;;;;;;20.90;11.63;;;4.10;93.70;;;;;;5052779;28;20501;-85
2021/03/02 04:39:42;;;;;;;21.67;12.37;;;4.10;94.10;;;;;;5037157;28;20032;-85
2021/03/02 04:42:08;;;;;;;23.17;12.40;;;4.10;93.60;;;;;;5052755;28;20026;-84
2021/03/02 04:44:34;;;;;;;23.47;12.30;;;4.10;93.80;;;;;;5052837;28;20435;-85
2021/03/02 04:47:00;;;;;;;22.63;11.57;;;4.00;93.80;;;;;;5037678;28;20025;-86
2021/03/02 04:49:25;;;;;;;25.03;12.30;;;4.00;93.80;;;;;;5053719;28;20025;-85
2021/03/02 04:51:51;;;;;;;21.30;11.67;;;4.00;93.60;;;;;;5037506;28;20029;-85
2021/03/02 04:54:17;;;;;;;22.53;12.53;;;4.00;93.70;;;;;;5037602;28;20029;-85
2021/03/02 04:56:42;;;;;;;21.00;11.03;;;4.10;93.70;;;;;;5037213;28;20486;-85
2021/03/02 04:59:08;;;;;;;23.13;11.60;;;4.00;93.70;;;;;;5037724;28;20021;-85
2021/03/02 05:01:34;;;;;;;19.70;10.40;;;4.00;93.60;;;;;;5038050;28;20029;-85
2021/03/02 05:04:00;;;;;;;21.73;11.63;;;4.00;93.70;;;;;;5037700;28;20028;-85
2021/03/02 05:06:26;;;;;;;21.70;11.03;;;4.00;93.60;;;;;;5053180;28;20022;-85
2021/03/02 05:08:52;;;;;;;19.87;10.70;;;4.00;93.50;;;;;;5037255;28;20123;-85
2021/03/02 05:11:18;;;;;;;21.90;11.27;;;4.00;93.50;;;;;;5052112;28;20483;-85
2021/03/02 05:13:44;;;;;;;21.37;11.17;;;4.00;93.50;;;;;;5052650;28;20428;-85
2021/03/02 05:16:11;;;;;;;24.10;11.60;;;3.90;93.60;;;;;;5036870;28;20029;-85
2021/03/02 05:18:36;;;;;;;22.17;11.27;;;3.90;93.70;;;;;;5037228;28;20025;-85
2021/03/02 05:21:03;;;;;;;21.47;11.30;;;3.90;93.70;;;;;;5052454;28;20047;-85
2021/03/02 05:23:29;;;;;;;19.47;11.20;;;3.90;93.70;;;;;;5037366;28;20482;-85
2021/03/02 05:25:54;;;;;;;19.43;10.47;;;3.90;93.70;;;;;;5052273;28;20024;-86
2021/03/02 05:28:20;;;;;;;19.53;10.10;;;4.00;93.60;;;;;;5036874;28;20033;-85
2021/03/02 05:30:45;;;;;;;19.67;10.93;;;3.90;93.70;;;;;;5037377;28;20028;-85
2021/03/02 05:33:11;;;;;;;19.73;10.57;;;4.00;93.50;;;;;;5052620;28;20053;-85
2021/03/02 05:35:37;;;;;;;19.83;10.57;;;4.10;93.40;;;;;;5037579;28;20071;-86
2021/03/02 05:38:02;;;;;;;19.10;9.90;;;4.10;93.40;;;;;;5039268;28;20083;-86
2021/03/02 05:40:28;;;;;;;19.87;10.43;;;4.10;93.30;;;;;;5038494;28;20040;-86
2021/03/02 05:42:54;;;;;;;19.60;9.50;;;4.10;93.30;;;;;;5054411;28;20028;-86
2021/03/02 05:45:20;;;;;;;18.33;9.87;;;4.10;93.20;;;;;;5038863;28;20394;-86
2021/03/02 05:47:48;;;;;;;18.83;9.37;;;4.20;93.20;;;;;;5040803;28;20033;-86
2021/03/02 05:50:14;;;;;;;20.77;10.83;;;4.30;92.80;;;;;;5038956;28;20029;-85
2021/03/02 05:52:40;;;;;;;19.83;10.17;;;4.20;92.90;;;;;;5040647;28;20128;-86
2021/03/02 05:55:07;;;;;;;18.90;10.67;;;4.20;93.00;;;;;;5040432;28;20022;-85
2021/03/02 05:57:33;;;;;;;18.77;9.73;;;4.20;93.00;;;;;;5052556;28;20025;-85
2021/03/02 06:00:00;;;;;;;17.17;9.60;;;4.30;93.00;;;;;;5033734;28;20029;-84
2021/03/02 06:02:26;;;;;;;17.80;9.70;;;4.30;92.90;;;;;;5032793;28;20021;-84
2021/03/02 06:04:51;;;;;;;18.20;9.33;;;4.20;93.00;;;;;;5033411;28;20024;-84
2021/03/02 06:07:17;;;;;;;18.70;9.57;;;4.20;93.00;;;;;;5032859;28;20102;-84
2021/03/02 06:09:46;;;;;;;20.53;9.40;;;4.20;92.90;;;;;;5031160;28;20108;-84
2021/03/02 06:12:12;;;;;;;18.92;9.93;;;4.20;92.90;;;;;;5031541;28;20035;-84
2021/03/02 06:14:38;;;;;;;22.70;10.20;;;4.10;93.10;;;;;;5032964;28;20485;-84
2021/03/02 06:17:04;;;;;;;23.00;10.40;;;4.10;93.10;;;;;;5032615;28;20096;-84
2021/03/02 06:19:47;;;;;;;18.83;9.50;;;4.10;93.00;;;;;;5032098;28;20029;-85
2021/03/02 06:22:35;;;;;;;18.47;8.93;;;4.10;93.20;;;;;;5032897;28;20017;-85
2021/03/02 06:25:05;;;;;;;19.90;9.73;;;4.00;93.20;;;;;;5034702;28;20033;-84
2021/03/02 06:27:32;;;;;;;18.40;9.03;;;4.00;93.10;;;;;;5035117;28;20029;-85
2021/03/02 06:30:09;;;;;;;19.40;9.10;;;4.00;93.10;;;;;;5034864;28;20109;-84
2021/03/02 06:32:49;;;;;;;22.83;10.20;;;4.00;93.10;;;;;;5033014;28;20300;-85
2021/03/02 06:35:35;;;;;;;16.70;9.47;;;4.00;92.90;;;;;;5034872;28;20070;-84
2021/03/02 06:38:02;;;;;;;18.83;9.83;;;3.90;93.30;;;;;;5033349;28;20043;-85
2021/03/02 06:40:42;;;;;;;19.57;9.60;;;3.90;93.50;;;;;;5035942;28;20064;-86
2021/03/02 06:43:26;;;;;;;20.43;9.93;;;3.90;93.50;;;;;;5038059;28;20026;-84
2021/03/02 06:45:52;;;;;;;18.23;10.13;;;3.90;93.50;;;;;;5038904;28;20068;-85
2021/03/02 06:48:18;;;;;;;16.50;9.07;;;3.90;93.50;;;;;;5054148;28;20022;-85
2021/03/02 06:50:43;;;;;;;17.93;9.93;;;4.00;93.60;;;;;;5036672;28;20022;-86
2021/03/02 06:53:10;;;;;;;18.43;9.20;;;3.90;93.60;;;;;;5036987;28;20068;-84
2021/03/02 06:55:38;;;;;;;20.17;10.40;;;4.00;93.70;;;;;;5036386;28;20398;-85
2021/03/02 06:58:33;;;;;;;17.40;10.80;;;4.00;93.70;;;;;;5054382;28;20367;-86
2021/03/02 07:00:59;;;;;;;19.83;9.50;;;4.00;93.50;;;;;;5038486;28;20124;-85
2021/03/02 07:03:31;;;;;;;19.30;9.30;;;4.00;93.70;;;;;;5038486;28;20017;-84
2021/03/02 07:06:03;;;;;;;18.80;9.27;;;4.10;93.70;;;;;;5037602;28;20409;-84
2021/03/02 07:08:29;;;;;;;21.63;10.33;;;4.10;93.70;;;;;;5039385;28;20022;-85
2021/03/02 07:10:55;;;;;;;17.60;9.60;;;4.20;93.70;;;;;;5039232;28;20025;-86
2021/03/02 07:13:22;;;;;;;21.23;8.97;;;4.20;93.60;;;;;;5038989;28;20116;-85
2021/03/02 07:15:51;;;;;;;23.00;9.70;;;4.30;93.60;;;;;;5038975;28;20025;-85
2021/03/02 07:18:19;;;;;;;21.70;10.15;;;4.30;93.60;;;;;;5037467;28;20063;-85
2021/03/02 07:20:49;;;;;;;21.07;10.93;;;4.40;93.60;;;;;;5038789;28;20021;-85
2021/03/02 07:23:22;;;;;;;29.37;10.47;;;4.50;93.40;;;;;;5054404;28;20025;-85
2021/03/02 07:25:50;;;;;;;25.33;10.73;;;4.50;93.30;;;;;;5039097;28;20482;-85
2021/03/02 07:28:25;;;;;;;19.33;10.03;;;4.60;93.30;;;;;;5052863;28;20028;-85
2021/03/02 07:30:52;;;;;;;19.13;9.87;;;4.60;93.30;;;;;;5037926;28;20026;-85
2021/03/02 07:33:18;;;;;;;18.27;9.90;;;4.70;93.30;;;;;;5037678;28;20474;-85
2021/03/02 07:35:45;;;;;;;22.87;10.13;;;4.80;93.30;;;;;;5037754;28;20040;-85
2021/03/02 07:38:22;;;;;;;23.53;11.43;;;4.80;93.20;;;;;;5038148;28;20025;-86
2021/03/02 07:40:50;;;;;;;21.53;10.90;;;4.90;93.30;;;;;;5036732;28;20025;-84
2021/03/02 07:43:36;;;;;;;23.73;11.23;;;5.10;93.50;;;;;;5053046;28;20517;-85
2021/03/02 07:46:41;;;;;;;24.87;10.93;;;5.10;93.20;;;;;;5053113;28;20052;-85
2021/03/02 07:49:28;;;;;;;21.73;9.70;;;5.20;93.00;;;;;;5038017;28;20087;-86
2021/03/02 07:51:59;;;;;;;21.47;9.30;;;5.30;92.90;;;;;;5037609;28;20032;-86
2021/03/02 07:54:26;;;;;;;23.23;9.80;;;5.30;92.60;;;;;;5038314;28;20470;-85
2021/03/02 07:57:13;;;;;;;20.03;9.40;;;5.40;92.50;;;;;;5037505;28;20056;-85
2021/03/02 07:59:39;;;;;;;18.07;9.30;;;5.50;92.30;;;;;;5038283;28;20021;-85
2021/03/02 08:02:19;;;;;;;19.07;9.40;;;5.60;92.00;;;;;;5038402;28;20067;-85
2021/03/02 08:04:46;;;;;;;17.50;8.90;;;5.70;92.20;;;;;;5037045;28;20627;-86
2021/03/02 08:07:18;;;;;;;15.60;8.77;;;5.80;91.80;;;;;;5038032;28;20022;-85
2021/03/02 08:09:44;;;;;;;17.50;8.97;;;5.80;91.60;;;;;;5036894;28;20017;-85
2021/03/02 08:12:33;;;;;;;19.80;9.03;;;5.90;91.40;;;;;;5035778;28;20029;-85
2021/03/02 08:15:19;;;;;;;17.42;8.90;;;6.00;91.30;;;;;;5035172;28;20528;-85
2021/03/02 08:17:45;;;;;;;16.40;8.73;;;6.10;91.10;;;;;;5031577;28;20120;-84
2021/03/02 08:20:10;;;;;;;15.50;8.70;;;6.20;91.10;;;;;;5035661;28;20049;-85
2021/03/02 08:22:42;;;;;;;16.47;8.57;;;6.20;91.00;;;;;;5036297;28;20038;-84
2021/03/02 08:25:24;;;;;;;17.07;8.70;;;6.30;90.90;;;;;;5036673;28;20029;-84
2021/03/02 08:27:59;;;;;;;15.83;8.40;;;6.40;90.90;;;;;;5036806;28;20022;-84
2021/03/02 08:30:28;;;;;;;15.33;8.40;;;6.40;90.90;;;;;;5035185;28;20029;-84
2021/03/02 08:32:55;;;;;;;15.73;8.02;;;6.40;90.80;;;;;;5037663;28;20029;-85
2021/03/02 08:35:31;;;;;;;15.37;8.73;;;6.60;90.60;;;;;;5036137;28;20490;-84
2021/03/02 08:38:08;;;;;;;14.63;8.80;;;6.60;90.60;;;;;;5037076;28;20030;-84
2021/03/02 08:40:34;;;;;;;15.90;9.13;;;6.60;90.60;;;;;;5036062;28;20021;-84
2021/03/02 08:43:11;;;;;;;13.83;8.50;;;6.60;90.60;;;;;;5035330;28;20040;-84
2021/03/02 08:45:45;;;;;;;17.43;8.93;;;6.80;90.70;;;;;;5035727;28;20104;-84
2021/03/02 08:48:18;;;;;;;17.13;9.07;;;6.80;90.70;;;;;;5034858;28;20025;-84
2021/03/02 08:50:44;;;;;;;15.83;9.27;;;6.80;90.70;;;;;;5034286;28;20022;-84
2021/03/02 08:53:29;;;;;;;19.93;9.27;;;6.90;90.60;;;;;;5034099;28;20025;-84
2021/03/02 08:55:55;;;;;;;15.53;9.07;;;6.90;90.50;;;;;;5035789;28;20490;-84
2021/03/02 08:58:29;;;;;;;16.93;9.30;;;7.00;90.50;;;;;;5035836;28;20031;-84
2021/03/02 09:00:56;;;;;;;16.57;9.13;;;7.00;90.40;;;;;;5035437;28;20041;-85
2021/03/02 09:03:23;;;;;;;17.30;10.00;;;7.10;90.30;;;;;;5033709;28;20432;-84
2021/03/02 09:06:24;;;;;;;17.43;9.63;;;7.10;90.20;;;;;;5035761;28;20022;-84
2021/03/02 09:09:04;;;;;;;17.67;9.50;;;7.20;90.20;;;;;;5036188;28;20029;-84
2021/03/02 09:11:43;;;;;;;16.17;9.25;;;7.20;90.20;;;;;;5036072;28;20375;-84
2021/03/02 09:14:17;;;;;;;16.17;9.15;;;7.30;90.10;;;;;;5034869;28;20037;-84
2021/03/02 09:16:58;;;;;;;14.90;8.17;;;7.30;90.10;;;;;;5036258;28;20056;-84
2021/03/02 09:19:39;;;;;;;15.20;8.53;;;7.30;90.10;;;;;;5034546;28;20033;-84
2021/03/02 09:22:13;;;;;;;13.43;7.80;;;7.40;90.00;;;;;;5034300;28;20090;-85
2021/03/02 09:24:44;;;;;;;17.60;8.40;;;7.40;89.80;;;;;;5035937;28;20021;-84
2021/03/02 09:27:11;;;;;;;14.50;8.33;;;7.50;89.80;;;;;;5036009;28;20022;-84
2021/03/02 09:29:42;;;;;;;12.20;7.17;;;7.50;89.70;;;;;;5034303;28;20029;-84
2021/03/02 09:32:09;;;;;;;12.93;7.17;;;7.50;89.30;;;;;;5034119;28;20037;-84
2021/03/02 09:34:37;;;;;;;12.13;7.27;;;7.60;89.10;;;;;;5035506;28;20026;-85
2021/03/02 09:37:08;;;;;;;14.20;8.20;;;7.70;89.00;;;;;;5035489;28;20434;-85
2021/03/02 09:39:36;;;;;;;14.23;7.53;;;7.70;88.90;;;;;;5034170;28;20039;-84
2021/03/02 09:42:12;;;;;;;15.30;7.83;;;7.80;88.80;;;;;;5036200;28;20073;-84
2021/03/02 09:44:44;;;;;;;12.63;7.33;;;7.90;88.50;;;;;;5034854;28;20032;-85
2021/03/02 09:47:16;;;;;;;13.33;7.40;;;8.00;88.10;;;;;;5037562;28;20029;-84
2021/03/02 09:49:44;;;;;;;13.50;7.60;;;8.00;87.80;;;;;;5034358;28;20032;-84
2021/03/02 09:52:31;;;;;;;14.40;7.20;;;8.10;87.90;;;;;;5035765;28;20025;-84
2021/03/02 09:55:18;;;;;;;12.23;7.00;;;8.10;86.90;;;;;;5034359;28;20053;-85
2021/03/02 09:58:13;;;;;;;14.23;7.33;;;8.40;85.30;;;;;;5034757;28;20025;-84
2021/03/02 10:00:52;;;;;;;11.97;5.83;;;8.50;84.80;;;;;;5036813;28;20029;-85
2021/03/02 10:03:22;;;;;;;14.70;6.60;;;8.60;83.90;;;;;;5037329;28;20026;-84
2021/03/02 10:06:02;;;;;;;15.53;7.17;;;8.80;84.00;;;;;;5036761;28;20025;-85
2021/03/02 10:08:30;;;;;;;14.30;6.63;;;8.80;83.80;;;;;;5035093;28;20022;-85
2021/03/02 10:11:00;;;;;;;12.52;6.65;;;8.80;83.90;;;;;;5036845;28;20025;-85
2021/03/02 10:13:30;;;;;;;12.80;6.30;;;8.90;83.90;;;;;;5035014;28;20460;-84
2021/03/02 10:16:32;;;;;;;12.27;6.90;;;8.90;84.10;;;;;;5036465;28;20600;-85
2021/03/02 10:19:01;;;;;;;11.50;6.70;;;9.00;83.80;;;;;;5024118;28;20045;-84
2021/03/02 10:21:29;;;;;;;13.75;7.40;;;9.10;83.20;;;;;;5035085;28;20452;-85
2021/03/02 10:23:57;;;;;;;12.17;6.57;;;9.20;82.40;;;;;;5036777;28;20108;-84
2021/03/02 10:26:31;;;;;;;13.68;6.72;;;9.40;79.20;;;;;;5035034;28;20068;-85
2021/03/02 10:28:57;;;;;;;15.13;6.73;;;9.40;79.00;;;;;;5034809;28;20038;-85
2021/03/02 10:31:23;;;;;;;12.87;6.50;;;9.40;78.70;;;;;;5036554;28;20151;-84
2021/03/02 10:33:49;;;;;;;14.03;6.30;;;9.50;78.70;;;;;;5034828;28;20033;-85
2021/03/02 10:36:17;;;;;;;14.40;6.27;;;9.50;77.60;;;;;;5036135;28;20034;-85
2021/03/02 10:38:43;;;;;;;12.67;6.50;;;9.70;76.40;;;;;;5035521;28;20121;-85
2021/03/02 10:41:08;;;;;;;12.80;6.40;;;9.80;75.70;;;;;;5035174;28;20073;-85
2021/03/02 10:43:34;;;;;;;15.57;7.37;;;9.90;75.70;;;;;;5035648;28;20025;-84
2021/03/02 10:45:59;;;;;;;13.57;7.00;;;9.90;75.90;;;;;;5036014;28;20453;-85
2021/03/02 10:48:25;;;;;;;13.33;6.70;;;10.10;74.80;;;;;;5036094;28;20391;-85
2021/03/02 10:50:50;;;;;;;12.80;7.00;;;10.10;73.70;;;;;;5036945;28;20025;-85
2021/03/02 10:53:16;;;;;;;11.30;6.00;;;10.20;73.30;;;;;;5036866;28;20444;-84
2021/03/02 10:55:42;;;;;;;13.93;6.97;;;10.10;73.90;;;;;;5034783;28;20028;-84
2021/03/02 10:58:07;;;;;;;13.17;6.73;;;10.10;74.30;;;;;;5035199;28;20049;-84
2021/03/02 11:00:33;;;;;;;12.40;6.33;;;10.10;74.60;;;;;;5034625;28;20360;-84
2021/03/02 11:02:58;;;;;;;12.63;6.53;;;10.00;74.20;;;;;;5035641;28;20022;-84
2021/03/02 11:05:24;;;;;;;12.83;6.47;;;10.00;74.20;;;;;;5035200;28;20424;-85
2021/03/02 11:07:50;;;;;;;13.70;6.57;;;10.10;73.50;;;;;;5035475;28;20025;-84
2021/03/02 11:10:15;;;;;;;14.37;6.97;;;10.20;73.40;;;;;;5033487;28;20436;-84
2021/03/02 11:12:41;;;;;;;14.40;6.63;;;10.20;73.90;;;;;;5034311;28;20033;-85
2021/03/02 11:15:11;;;;;;;13.37;6.93;;;10.20;73.20;;;;;;5033655;28;20033;-84
2021/03/02 11:17:38;;;;;;;14.50;7.10;;;10.30;72.00;;;;;;5035030;28;20026;-85
2021/03/02 11:20:05;;;;;;;12.10;6.70;;;10.20;72.10;;;;;;5034559;28;20056;-84
2021/03/02 11:22:31;;;;;;;13.50;7.00;;;10.50;71.70;;;;;;5033260;28;20179;-85
2021/03/02 11:24:58;;;;;;;15.80;6.87;;;10.50;71.00;;;;;;5035218;28;20045;-84
2021/03/02 11:27:23;;;;;;;14.00;7.10;;;10.60;70.10;;;;;;5036183;28;20030;-84
2021/03/02 11:29:49;;;;;;;13.87;7.40;;;10.70;69.60;;;;;;5038785;28;20035;-85
2021/03/02 11:32:14;;;;;;;15.23;7.60;;;10.80;69.70;;;;;;5038823;28;20076;-85
2021/03/02 11:34:40;;;;;;;10.77;6.87;;;10.80;69.30;;;;;;5038934;28;20086;-84
2021/03/02 11:37:06;;;;;;;14.30;7.70;;;10.70;70.00;;;;;;5037532;28;20052;-85
2021/03/02 11:39:31;;;;;;;14.27;7.77;;;10.80;69.00;;;;;;5038742;28;20113;-84
2021/03/02 11:41:57;;;;;;;12.77;6.73;;;10.80;69.20;;;;;;5037955;28;20029;-84
2021/03/02 11:44:22;;;;;;;34.03;11.03;;;10.80;69.40;;;;;;5038478;28;20531;-84
2021/03/02 11:46:48;;;;;;;16.10;7.47;;;10.70;69.40;;;;;;5053610;28;20021;-85
2021/03/02 11:49:14;;;;;;;14.50;7.50;;;10.80;69.60;;;;;;5037393;28;20049;-85
2021/03/02 11:51:40;;;;;;;13.37;7.50;;;11.00;68.20;;;;;;5038434;28;20034;-85
2021/03/02 11:54:05;;;;;;;13.60;7.27;;;11.00;68.90;;;;;;5037104;28;20075;-84
2021/03/02 11:56:34;;;;;;;16.70;8.00;;;11.10;68.10;;;;;;5036896;28;20033;-84
2021/03/02 11:58:59;;;;;;;14.70;7.40;;;11.00;68.00;;;;;;5040134;28;20457;-84
2021/03/02 12:01:25;;;;;;;13.53;7.37;;;11.00;67.80;;;;;;5038619;28;20026;-85
2021/03/02 12:03:50;;;;;;;14.53;8.03;;;11.00;66.90;;;;;;5037382;28;20079;-84
2021/03/02 12:06:16;;;;;;;15.40;8.30;;;11.10;67.10;;;;;;5036908;28;20021;-84
2021/03/02 12:08:42;;;;;;;14.93;8.20;;;11.10;68.10;;;;;;5038523;28;20382;-84
2021/03/02 12:11:07;;;;;;;13.40;7.47;;;11.10;68.10;;;;;;5036561;28;20030;-85
2021/03/02 12:13:33;;;;;;;16.93;7.60;;;11.30;64.50;;;;;;5046636;22;20045;-84
2021/03/02 12:15:58;;;;;;;12.93;7.13;;;11.30;64.70;;;;;;5013997;28;20493;-84
2021/03/02 12:18:24;;;;;;;12.33;7.40;;;11.20;65.00;;;;;;5014833;28;20363;-84
2021/03/02 12:20:50;;;;;;;13.17;7.37;;;11.20;65.90;;;;;;5013890;28;20068;-85
2021/03/02 12:23:16;;;;;;;16.00;7.67;;;11.20;65.30;;;;;;5013489;28;20120;-84
2021/03/02 12:25:42;;;;;;;14.63;8.20;;;11.40;63.70;;;;;;5021224;28;20097;-87
2021/03/02 12:28:07;;;;;;;14.13;7.50;;;11.40;62.50;;;;;;5019450;28;20054;-84
2021/03/02 12:30:33;;;;;;;14.80;7.80;;;11.40;62.70;;;;;;5018185;28;20058;-85
2021/03/02 12:33:00;;;;;;;13.70;7.40;;;11.40;63.60;;;;;;5019874;28;20434;-85
2021/03/02 12:35:27;;;;;;;12.70;7.70;;;11.50;63.80;;;;;;5020056;28;20516;-85
2021/03/02 12:37:53;;;;;;;17.67;8.03;;;11.40;64.60;;;;;;5018666;28;20030;-85
2021/03/02 12:40:21;;;;;;;12.07;6.93;;;11.50;64.40;;;;;;5017635;28;20033;-85
2021/03/02 12:42:46;;;;;;;16.30;7.67;;;11.50;64.90;;;;;;5015768;28;20068;-85
2021/03/02 12:45:13;;;;;;;16.67;7.80;;;11.50;63.80;;;;;;5015993;28;20410;-85
2021/03/02 12:47:38;;;;;;;14.57;8.33;;;11.50;63.50;;;;;;5020146;28;20025;-84
2021/03/02 12:50:08;;;;;;;14.90;8.20;;;11.70;62.20;;;;;;5015420;28;20025;-85
2021/03/02 12:52:38;;;;;;;14.90;8.73;;;11.70;62.40;;;;;;5013379;28;20088;-84